Time;durP1;ratioP1;P1;durP2;ratioP2;P2;SDS_P1;SDS_P2;PMS_P1;PMS_P2;Temp;Humidity;BMP_temperature;BMP_pressure;BME280_temperature;BME280_humidity;BME280_pressure;Samples;Min_cycle;Max_cycle;Signal;HPM_P1;HPM_P2
2023/02/14 00:01:19;;;;;;;48.70;23.20;;;3.70;99.90;;;;;;5050144;28;20107;-69
2023/02/14 00:03:48;;;;;;;49.65;27.90;;;3.70;99.90;;;;;;5070768;28;20479;-68
2023/02/14 00:06:16;;;;;;;51.30;27.83;;;3.80;99.90;;;;;;5064329;28;20041;-68
2023/02/14 00:08:43;;;;;;;47.00;25.20;;;3.80;99.90;;;;;;5062606;28;20061;-69
2023/02/14 00:11:12;;;;;;;48.92;26.30;;;3.70;99.90;;;;;;5066323;28;20557;-69
2023/02/14 00:15:20;;;;;;;48.85;25.45;;;3.70;99.90;;;;;;5060893;28;20044;-68
2023/02/14 00:16:26;;;;;;;48.85;24.92;;;3.70;99.90;;;;;;5070020;28;20045;-68
2023/02/14 00:19:03;;;;;;;52.40;26.08;;;3.70;99.90;;;;;;5070567;28;20051;-69
2023/02/14 00:21:34;;;;;;;53.80;27.15;;;3.60;99.90;;;;;;5047617;28;20125;-69
2023/02/14 00:24:08;;;;;;;55.80;28.02;;;3.70;99.90;;;;;;5064763;28;20459;-67
2023/02/14 00:26:38;;;;;;;51.17;26.80;;;3.60;99.90;;;;;;5070813;28;20515;-68
2023/02/14 00:29:11;;;;;;;52.97;27.45;;;3.70;99.90;;;;;;5069140;28;20092;-67
2023/02/14 00:31:39;;;;;;;50.07;26.90;;;3.60;99.90;;;;;;5070660;28;20483;-68
2023/02/14 00:34:07;;;;;;;50.08;25.75;;;3.70;99.90;;;;;;5068605;28;20181;-63
2023/02/14 00:36:35;;;;;;;49.10;25.23;;;3.70;99.90;;;;;;5070396;28;20052;-66
2023/02/14 00:39:07;;;;;;;52.13;27.10;;;3.70;99.90;;;;;;5055886;28;20044;-66
2023/02/14 00:41:37;;;;;;;49.47;25.63;;;3.80;99.90;;;;;;5065652;28;20040;-67
2023/02/14 00:44:05;;;;;;;50.17;25.90;;;3.70;99.90;;;;;;5070358;28;20049;-68
2023/02/14 00:46:33;;;;;;;52.22;26.63;;;3.70;99.90;;;;;;5055752;28;20057;-69
2023/02/14 00:49:00;;;;;;;49.78;25.92;;;3.60;99.90;;;;;;5072467;28;20115;-67
2023/02/14 00:51:28;;;;;;;49.72;26.98;;;3.50;99.90;;;;;;5070385;28;20036;-67
2023/02/14 00:53:55;;;;;;;50.65;25.85;;;3.60;99.90;;;;;;5069904;28;20047;-68
2023/02/14 00:56:22;;;;;;;51.45;27.13;;;3.60;99.90;;;;;;5070516;28;20497;-69
2023/02/14 00:58:50;;;;;;;47.53;24.02;;;3.60;99.90;;;;;;5078188;28;20071;-67
2023/02/14 01:01:17;;;;;;;45.38;24.75;;;3.60;99.90;;;;;;5080109;28;20415;-67
2023/02/14 01:03:45;;;;;;;49.22;25.08;;;3.60;99.90;;;;;;5069937;28;20124;-67
2023/02/14 01:06:13;;;;;;;50.00;24.13;;;3.60;99.90;;;;;;5067348;28;20127;-67
2023/02/14 01:08:40;;;;;;;48.60;25.10;;;3.60;99.90;;;;;;5055245;28;20037;-68
2023/02/14 01:11:14;;;;;;;49.03;25.27;;;3.60;99.90;;;;;;5069874;28;20502;-67
2023/02/14 01:13:43;;;;;;;49.72;24.27;;;3.50;99.90;;;;;;5061338;28;20048;-67
2023/02/14 01:16:13;;;;;;;48.72;25.08;;;3.40;99.90;;;;;;5071758;28;20036;-68
2023/02/14 01:18:41;;;;;;;52.80;26.02;;;3.50;99.90;;;;;;5077451;28;20075;-67
2023/02/14 01:21:23;;;;;;;51.65;24.83;;;3.40;99.90;;;;;;5059287;28;20060;-68
2023/02/14 01:23:54;;;;;;;47.70;25.23;;;3.50;99.90;;;;;;5072893;28;20051;-68
2023/02/14 01:26:23;;;;;;;49.42;24.33;;;3.50;99.90;;;;;;5061419;28;20056;-67
2023/02/14 01:28:50;;;;;;;46.65;24.02;;;3.50;99.90;;;;;;5055807;28;20049;-67
2023/02/14 01:31:21;;;;;;;48.40;23.33;;;3.50;99.90;;;;;;5072893;28;20193;-67
2023/02/14 01:33:49;;;;;;;48.50;23.70;;;3.50;99.90;;;;;;5073543;28;20075;-68
2023/02/14 01:36:27;;;;;;;46.85;25.00;;;3.60;99.90;;;;;;5071520;28;20040;-68
2023/02/14 01:38:57;;;;;;;47.90;24.20;;;3.60;99.90;;;;;;5088805;28;20041;-68
2023/02/14 01:41:27;;;;;;;46.17;23.52;;;3.50;99.90;;;;;;5072018;28;20047;-68
2023/02/14 01:43:54;;;;;;;50.15;24.92;;;3.60;99.90;;;;;;5073561;28;20045;-68
2023/02/14 01:46:24;;;;;;;47.72;24.63;;;3.50;99.90;;;;;;5055661;28;20128;-68
2023/02/14 01:48:58;;;;;;;50.65;24.98;;;3.50;99.90;;;;;;5058504;28;20127;-68
2023/02/14 01:51:25;;;;;;;51.22;23.70;;;3.50;99.90;;;;;;5088570;28;20514;-68
2023/02/14 01:53:53;;;;;;;42.38;22.67;;;3.50;99.90;;;;;;5046477;28;20032;-68
2023/02/14 01:56:30;;;;;;;47.22;23.77;;;3.50;99.90;;;;;;5072314;28;20562;-68
2023/02/14 01:59:00;;;;;;;45.00;23.60;;;3.50;99.90;;;;;;5074047;28;20041;-68
2023/02/14 02:01:29;;;;;;;47.28;24.45;;;3.50;99.90;;;;;;5063857;28;20467;-67
2023/02/14 02:04:01;;;;;;;50.35;25.23;;;3.50;99.90;;;;;;5088072;28;20044;-67
2023/02/14 02:06:40;;;;;;;48.17;23.98;;;3.40;99.90;;;;;;5063120;28;20518;-68
2023/02/14 02:09:12;;;;;;;44.72;23.38;;;3.40;99.90;;;;;;5055220;28;20106;-69
2023/02/14 02:11:40;;;;;;;48.60;24.15;;;3.40;99.90;;;;;;5063489;28;20036;-67
2023/02/14 02:14:16;;;;;;;44.65;22.40;;;3.40;99.90;;;;;;5088087;28;20047;-67
2023/02/14 02:16:56;;;;;;;47.05;24.10;;;3.40;99.90;;;;;;5072946;28;20037;-67
2023/02/14 02:19:53;;;;;;;43.55;22.83;;;3.50;99.90;;;;;;5073457;28;20491;-66
2023/02/14 02:22:40;;;;;;;44.83;22.90;;;3.40;99.90;;;;;;5072051;28;20041;-67
2023/02/14 02:25:13;;;;;;;47.88;23.35;;;3.40;99.90;;;;;;5088144;28;20182;-69
2023/02/14 02:27:57;;;;;;;44.38;23.58;;;3.40;99.90;;;;;;5070567;28;20554;-68
2023/02/14 02:30:50;;;;;;;47.92;23.65;;;3.40;99.90;;;;;;5059790;28;20493;-68
2023/02/14 02:33:47;;;;;;;50.72;23.80;;;3.40;99.90;;;;;;5052417;28;20439;-67
2023/02/14 02:36:20;;;;;;;49.00;24.63;;;3.30;99.90;;;;;;5061063;28;20051;-68
2023/02/14 02:39:02;;;;;;;52.28;24.42;;;3.20;99.90;;;;;;5087509;28;20156;-69
2023/02/14 02:41:59;;;;;;;47.72;23.15;;;3.10;99.90;;;;;;5076284;28;20044;-69
2023/02/14 02:44:41;;;;;;;54.55;25.00;;;3.10;99.90;;;;;;5066994;28;20523;-68
2023/02/14 02:47:09;;;;;;;;;;;3.10;99.90;;;;;;5062678;28;20094;-68
2023/02/14 02:53:02;;;;;;;56.85;26.38;;;3.20;99.90;;;;;;5062755;28;20491;-69
2023/02/14 02:58:35;;;;;;;56.92;26.83;;;3.20;99.90;;;;;;5066117;28;20108;-68
2023/02/14 03:01:10;;;;;;;56.55;24.80;;;3.20;99.90;;;;;;5063669;28;20064;-67
2023/02/14 03:06:26;;;;;;;57.17;27.35;;;3.20;99.90;;;;;;5070230;28;20044;-68
2023/02/14 03:08:53;;;;;;;56.03;26.73;;;3.20;99.90;;;;;;5043286;28;20060;-68
2023/02/14 03:11:20;;;;;;;58.00;27.52;;;3.20;99.90;;;;;;5054383;28;20376;-68
2023/02/14 03:14:07;;;;;;;55.50;26.50;;;3.20;99.90;;;;;;5086537;28;20040;-67
2023/02/14 03:17:16;;;;;;;59.85;27.77;;;3.10;99.90;;;;;;5071090;28;20036;-67
2023/02/14 03:20:14;;;;;;;60.33;27.88;;;3.10;99.90;;;;;;5003329;28;20060;-68
2023/02/14 03:23:15;;;;;;;51.92;24.67;;;3.10;99.90;;;;;;5028740;28;20490;-67
2023/02/14 03:25:47;;;;;;;59.33;27.52;;;3.10;99.90;;;;;;5049739;28;20075;-67
2023/02/14 03:28:33;;;;;;;58.92;26.95;;;3.10;99.90;;;;;;5029543;28;20503;-67
2023/02/14 03:31:06;;;;;;;56.58;26.88;;;3.00;99.90;;;;;;5028335;28;20063;-67
2023/02/14 03:33:46;;;;;;;61.00;27.48;;;3.00;99.90;;;;;;5046575;28;20033;-67
2023/02/14 03:36:45;;;;;;;62.15;26.52;;;3.00;99.90;;;;;;5031241;28;20136;-67
2023/02/14 03:39:20;;;;;;;61.50;28.40;;;3.00;99.90;;;;;;5047363;28;20136;-68
2023/02/14 03:42:11;;;;;;;57.22;25.70;;;3.00;99.90;;;;;;5031348;28;20050;-67
2023/02/14 03:44:41;;;;;;;57.30;26.40;;;3.00;99.90;;;;;;5030591;28;20121;-68
2023/02/14 03:47:12;;;;;;;58.33;27.70;;;3.00;99.90;;;;;;5051539;28;20055;-68
2023/02/14 03:50:06;;;;;;;55.55;25.98;;;3.00;99.90;;;;;;5051353;28;20041;-68
2023/02/14 03:52:35;;;;;;;53.17;25.08;;;3.00;99.90;;;;;;5032100;28;20045;-67
2023/02/14 03:55:05;;;;;;;54.97;26.67;;;3.00;99.90;;;;;;5029783;28;20408;-68
2023/02/14 03:57:59;;;;;;;55.42;25.27;;;3.00;99.90;;;;;;5030576;28;20453;-68
2023/02/14 04:00:29;;;;;;;55.33;24.40;;;3.00;99.90;;;;;;5030871;28;20041;-68
2023/02/14 04:03:02;;;;;;;51.08;25.25;;;2.90;99.90;;;;;;5030739;28;20075;-67
2023/02/14 04:05:29;;;;;;;53.67;23.52;;;2.90;99.90;;;;;;5030570;28;20060;-67
2023/02/14 04:07:58;;;;;;;49.50;23.70;;;3.00;99.90;;;;;;5030667;28;20042;-68
2023/02/14 04:10:26;;;;;;;52.50;24.67;;;2.90;99.90;;;;;;5049125;28;20041;-69
2023/02/14 04:12:53;;;;;;;55.78;25.20;;;3.00;99.90;;;;;;5049541;28;20045;-68
2023/02/14 04:15:20;;;;;;;48.20;22.92;;;2.90;99.90;;;;;;5050729;28;20038;-69
2023/02/14 04:20:33;;;;;;;52.85;24.00;;;3.00;99.90;;;;;;5030396;28;20045;-69
2023/02/14 04:23:01;;;;;;;51.90;23.88;;;3.00;99.90;;;;;;5030331;28;20048;-68
2023/02/14 04:25:30;;;;;;;56.20;24.65;;;2.90;99.90;;;;;;5030399;28;20064;-68
2023/02/14 04:27:57;;;;;;;55.97;25.00;;;2.90;99.90;;;;;;5030780;28;20038;-68
2023/02/14 04:30:24;;;;;;;57.05;25.25;;;2.90;99.90;;;;;;5031005;28;20061;-68
2023/02/14 04:32:51;;;;;;;53.67;24.98;;;2.80;99.90;;;;;;5030571;28;20052;-68
2023/02/14 04:35:19;;;;;;;61.17;26.42;;;2.70;99.90;;;;;;5029980;28;20435;-67
2023/02/14 04:37:46;;;;;;;58.60;26.48;;;2.60;99.90;;;;;;5045487;28;20080;-68
2023/02/14 04:40:16;;;;;;;59.33;25.50;;;2.60;99.90;;;;;;5028937;28;20481;-67
2023/02/14 04:42:45;;;;;;;61.95;26.05;;;2.60;99.90;;;;;;5028546;28;20056;-67
2023/02/14 04:45:13;;;;;;;55.75;24.98;;;2.60;99.90;;;;;;5041348;28;20457;-67
2023/02/14 04:47:40;;;;;;;56.30;25.73;;;2.60;99.90;;;;;;5053140;28;20041;-67
2023/02/14 04:50:08;;;;;;;56.63;25.67;;;2.60;99.90;;;;;;5038568;28;20187;-67
2023/02/14 04:52:35;;;;;;;55.60;25.45;;;2.70;99.90;;;;;;5034054;28;20041;-67
2023/02/14 04:55:03;;;;;;;61.83;26.52;;;2.70;99.90;;;;;;5033718;28;20425;-68
2023/02/14 04:57:31;;;;;;;55.40;23.63;;;2.70;99.90;;;;;;5034520;28;20057;-67
2023/02/14 04:59:58;;;;;;;59.13;26.17;;;2.70;99.90;;;;;;5045493;28;20052;-68
2023/02/14 05:02:25;;;;;;;53.28;25.23;;;2.70;99.90;;;;;;5033404;28;20044;-67
2023/02/14 05:04:53;;;;;;;58.65;26.60;;;2.70;99.90;;;;;;5031200;28;20053;-67
2023/02/14 05:07:20;;;;;;;59.35;25.38;;;2.70;99.90;;;;;;5033465;28;20107;-67
2023/02/14 05:09:47;;;;;;;69.88;31.20;;;2.70;99.90;;;;;;5044045;28;20049;-67
2023/02/14 05:12:15;;;;;;;62.25;28.52;;;2.80;99.90;;;;;;5033043;28;20077;-68
2023/02/14 05:14:42;;;;;;;63.00;27.30;;;2.80;99.90;;;;;;5032921;28;20038;-66
2023/02/14 05:17:10;;;;;;;59.90;26.80;;;2.80;99.90;;;;;;5033770;28;20503;-68
2023/02/14 05:19:37;;;;;;;62.03;25.35;;;2.80;99.90;;;;;;5033951;28;20045;-67
2023/02/14 05:22:04;;;;;;;64.00;27.15;;;2.80;99.90;;;;;;5033000;28;20068;-67
2023/02/14 05:24:32;;;;;;;62.58;26.45;;;2.90;99.90;;;;;;5034039;28;20072;-68
2023/02/14 05:26:59;;;;;;;58.20;26.10;;;2.80;99.90;;;;;;5032946;28;20050;-68
2023/02/14 05:29:26;;;;;;;62.97;26.67;;;2.80;99.90;;;;;;5033437;28;20415;-68
2023/02/14 05:31:53;;;;;;;59.88;27.17;;;2.80;99.90;;;;;;5035928;28;20522;-68
2023/02/14 05:34:21;;;;;;;55.53;25.33;;;2.80;99.90;;;;;;5050305;28;20061;-67
2023/02/14 05:36:48;;;;;;;54.88;23.70;;;2.80;99.90;;;;;;5053030;28;20037;-67
2023/02/14 05:39:15;;;;;;;61.15;26.65;;;2.70;99.90;;;;;;5052119;28;20061;-68
2023/02/14 05:41:42;;;;;;;59.95;26.30;;;2.70;99.90;;;;;;5051407;28;20056;-67
2023/02/14 05:44:10;;;;;;;59.67;25.92;;;2.70;99.90;;;;;;5045093;28;20166;-67
2023/02/14 05:46:37;;;;;;;61.00;26.63;;;2.70;99.90;;;;;;5052113;28;20414;-67
2023/02/14 05:49:04;;;;;;;52.92;24.38;;;2.70;99.90;;;;;;5051810;28;20045;-67
2023/02/14 05:51:31;;;;;;;59.33;26.00;;;2.70;99.90;;;;;;5050905;28;20119;-68
2023/02/14 05:54:00;;;;;;;59.15;26.00;;;2.60;99.90;;;;;;5051308;28;20057;-68
2023/02/14 05:56:27;;;;;;;58.67;25.48;;;2.60;99.90;;;;;;5040834;28;20512;-69
2023/02/14 05:58:54;;;;;;;61.40;25.25;;;2.60;99.90;;;;;;5047482;28;20102;-68
2023/02/14 06:01:21;;;;;;;58.38;25.40;;;2.60;99.90;;;;;;5048727;28;20514;-68
2023/02/14 06:03:48;;;;;;;56.92;25.30;;;2.70;99.90;;;;;;5069825;28;20051;-69
2023/02/14 06:06:16;;;;;;;56.17;25.48;;;2.70;99.90;;;;;;5062049;28;20594;-68
2023/02/14 06:08:43;;;;;;;56.15;24.98;;;2.70;99.90;;;;;;5053966;28;20492;-67
2023/02/14 06:11:10;;;;;;;57.38;24.95;;;2.70;99.90;;;;;;5061400;28;20475;-68
2023/02/14 06:13:40;;;;;;;61.20;27.58;;;2.80;99.90;;;;;;5072854;28;20517;-67
2023/02/14 06:16:07;;;;;;;56.50;24.42;;;2.80;99.90;;;;;;5070322;28;20059;-70
2023/02/14 06:18:35;;;;;;;59.28;26.95;;;2.70;99.90;;;;;;5072226;28;20539;-68
2023/02/14 06:21:02;;;;;;;62.10;27.27;;;2.80;99.90;;;;;;5061807;28;20124;-68
2023/02/14 06:23:30;;;;;;;68.63;27.77;;;2.80;99.90;;;;;;5068625;28;20082;-69
2023/02/14 06:25:57;;;;;;;59.63;26.50;;;2.80;99.90;;;;;;5072253;28;20064;-68
2023/02/14 06:28:24;;;;;;;55.60;25.13;;;2.80;99.90;;;;;;5070255;28;20036;-69
2023/02/14 06:30:51;;;;;;;59.72;25.92;;;2.80;99.90;;;;;;5072763;28;20074;-69
2023/02/14 06:33:19;;;;;;;64.80;26.83;;;2.80;99.90;;;;;;5058729;28;20072;-68
2023/02/14 06:35:46;;;;;;;65.35;27.00;;;2.80;99.90;;;;;;5072534;28;20036;-68
2023/02/14 06:38:13;;;;;;;67.80;27.38;;;2.70;99.90;;;;;;5049601;28;20045;-67
2023/02/14 06:40:41;;;;;;;66.72;27.95;;;2.70;99.90;;;;;;5052180;28;20487;-67
2023/02/14 06:43:08;;;;;;;62.20;27.13;;;2.80;99.90;;;;;;5053998;28;20044;-68
2023/02/14 06:45:35;;;;;;;66.45;28.77;;;2.80;99.90;;;;;;5069175;28;20048;-68
2023/02/14 06:48:03;;;;;;;57.75;25.10;;;2.80;99.90;;;;;;5066047;28;20045;-67
2023/02/14 06:50:30;;;;;;;56.15;26.27;;;2.80;99.90;;;;;;5071900;28;20590;-68
2023/02/14 06:52:57;;;;;;;55.72;25.80;;;2.80;99.90;;;;;;5070301;28;20491;-68
2023/02/14 06:55:24;;;;;;;62.47;26.58;;;2.80;99.90;;;;;;5054371;28;20051;-68
2023/02/14 06:57:52;;;;;;;58.15;25.13;;;2.70;99.90;;;;;;5050192;28;20064;-68
2023/02/14 07:00:20;;;;;;;60.55;25.90;;;2.80;99.90;;;;;;5035067;28;20060;-67
2023/02/14 07:02:47;;;;;;;63.20;26.08;;;2.80;99.90;;;;;;5050854;28;20395;-67
2023/02/14 07:05:17;;;;;;;58.25;27.17;;;2.70;99.90;;;;;;5051182;28;20423;-67
2023/02/14 07:07:45;;;;;;;67.22;27.40;;;2.70;99.90;;;;;;5067312;28;20037;-67
2023/02/14 07:10:13;;;;;;;59.58;26.50;;;2.70;99.90;;;;;;5058384;28;20410;-67
2023/02/14 07:12:41;;;;;;;58.47;24.45;;;2.70;99.90;;;;;;5070378;28;20040;-67
2023/02/14 07:15:11;;;;;;;61.03;25.45;;;2.70;99.90;;;;;;5071399;28;20123;-67
2023/02/14 07:17:39;;;;;;;59.30;24.90;;;2.70;99.90;;;;;;5071600;28;20059;-67
2023/02/14 07:20:08;;;;;;;59.05;25.77;;;2.70;99.90;;;;;;5069438;28;20045;-67
2023/02/14 07:22:36;;;;;;;63.88;26.42;;;2.70;99.90;;;;;;5052543;28;20045;-67
2023/02/14 07:25:05;;;;;;;62.90;26.38;;;2.60;99.90;;;;;;5064675;28;20044;-66
2023/02/14 07:27:35;;;;;;;62.72;27.35;;;2.60;99.90;;;;;;5071381;28;20075;-68
2023/02/14 07:30:04;;;;;;;57.75;25.25;;;2.60;99.90;;;;;;5070054;28;20044;-67
2023/02/14 07:32:33;;;;;;;67.28;26.40;;;2.70;99.90;;;;;;5045887;28;20045;-66
2023/02/14 07:35:00;;;;;;;55.65;24.00;;;2.60;99.90;;;;;;5053989;28;20071;-67
2023/02/14 07:37:27;;;;;;;61.85;25.33;;;2.50;99.90;;;;;;5056640;28;20037;-67
2023/02/14 07:39:54;;;;;;;58.67;26.30;;;2.50;99.90;;;;;;5053645;28;20039;-67
2023/02/14 07:42:21;;;;;;;65.55;27.40;;;2.60;99.90;;;;;;5057357;28;20064;-66
2023/02/14 07:44:49;;;;;;;62.28;27.02;;;2.60;99.90;;;;;;5085995;28;20127;-66
2023/02/14 07:47:16;;;;;;;66.78;25.42;;;2.50;99.90;;;;;;5062756;28;20518;-66
2023/02/14 07:49:44;;;;;;;64.70;27.25;;;2.50;99.90;;;;;;5039840;28;20072;-67
2023/02/14 07:52:11;;;;;;;63.83;27.58;;;2.60;99.90;;;;;;5035053;28;20505;-67
2023/02/14 07:54:38;;;;;;;62.67;26.65;;;2.60;99.90;;;;;;5046457;28;20038;-67
2023/02/14 07:57:05;;;;;;;60.50;25.27;;;2.70;99.90;;;;;;5036833;28;20129;-67
2023/02/14 07:59:33;;;;;;;61.85;26.75;;;2.80;99.90;;;;;;5043823;28;20029;-68
2023/02/14 08:02:00;;;;;;;64.70;27.67;;;2.90;99.90;;;;;;5036677;28;20048;-68
2023/02/14 08:04:28;;;;;;;63.40;26.48;;;2.90;99.90;;;;;;5030388;28;20051;-67
2023/02/14 08:06:57;;;;;;;61.58;26.63;;;3.00;99.90;;;;;;5039785;28;20132;-66
2023/02/14 08:09:24;;;;;;;65.95;26.23;;;3.00;99.90;;;;;;5041298;28;20053;-67
2023/02/14 08:14:40;;;;;;;57.72;24.65;;;2.90;99.90;;;;;;5050753;28;20049;-66
2023/02/14 08:17:12;;;;;;;59.92;24.77;;;2.90;99.90;;;;;;5037181;28;20037;-66
2023/02/14 08:19:40;;;;;;;;;;;2.80;99.90;;;;;;5034240;28;20508;-67
2023/02/14 08:22:07;;;;;;;62.83;26.55;;;2.80;99.90;;;;;;5031716;28;19921;-66
2023/02/14 08:24:34;;;;;;;63.90;25.35;;;2.90;99.90;;;;;;5033561;28;20049;-66
2023/02/14 08:27:01;;;;;;;65.88;27.42;;;3.00;99.90;;;;;;5042228;28;20117;-67
2023/02/14 08:29:29;;;;;;;65.55;26.33;;;3.10;99.90;;;;;;5040576;28;20040;-67
2023/02/14 08:31:59;;;;;;;62.70;26.33;;;3.20;99.90;;;;;;5044190;28;20055;-67
2023/02/14 08:34:26;;;;;;;69.63;27.20;;;3.30;99.90;;;;;;5055340;28;20416;-67
2023/02/14 08:36:54;;;;;;;56.95;25.00;;;3.40;99.90;;;;;;5050379;28;20492;-67
2023/02/14 08:39:21;;;;;;;60.78;26.08;;;3.20;99.90;;;;;;5051461;28;20538;-67
2023/02/14 08:41:48;;;;;;;62.17;25.92;;;3.30;99.90;;;;;;5048537;28;20033;-66
2023/02/14 08:44:16;;;;;;;64.53;26.45;;;3.40;99.90;;;;;;5056564;28;20041;-66
2023/02/14 08:46:43;;;;;;;59.35;25.90;;;3.50;99.90;;;;;;5051968;28;20488;-66
2023/02/14 08:49:10;;;;;;;60.63;25.45;;;3.50;99.90;;;;;;5050565;28;20063;-66
2023/02/14 08:51:38;;;;;;;60.42;24.75;;;3.60;99.90;;;;;;5051689;28;20491;-66
2023/02/14 08:54:05;;;;;;;56.80;23.92;;;3.70;99.90;;;;;;5048044;28;20513;-66
2023/02/14 08:56:32;;;;;;;59.67;24.67;;;3.70;99.90;;;;;;5030500;28;20034;-66
2023/02/14 08:58:59;;;;;;;58.70;24.70;;;3.40;99.90;;;;;;5040324;28;20416;-66
2023/02/14 09:01:27;;;;;;;55.88;24.83;;;3.40;99.90;;;;;;5036877;28;20669;-67
2023/02/14 09:03:56;;;;;;;61.25;26.00;;;3.40;99.90;;;;;;5050840;28;20067;-67
2023/02/14 09:06:24;;;;;;;50.30;24.10;;;3.40;99.90;;;;;;5034927;28;20097;-67
2023/02/14 09:08:53;;;;;;;58.13;25.08;;;3.40;99.90;;;;;;5037385;28;20477;-67
2023/02/14 09:11:23;;;;;;;56.95;24.20;;;3.30;99.90;;;;;;5035737;28;20116;-66
2023/02/14 09:13:52;;;;;;;53.63;23.08;;;3.30;99.90;;;;;;5031001;28;20509;-66
2023/02/14 09:16:20;;;;;;;52.08;23.73;;;3.60;99.90;;;;;;5053872;28;20037;-67
2023/02/14 09:18:48;;;;;;;52.53;23.80;;;3.60;99.90;;;;;;5034949;28;20124;-67
2023/02/14 09:21:20;;;;;;;52.97;23.60;;;3.50;99.90;;;;;;5029881;28;20569;-67
2023/02/14 09:23:47;;;;;;;51.33;23.33;;;3.60;99.90;;;;;;5051426;28;20128;-67
2023/02/14 09:26:15;;;;;;;50.65;21.58;;;3.60;99.90;;;;;;5040096;28;20050;-67
2023/02/14 09:28:43;;;;;;;55.97;25.08;;;3.50;99.90;;;;;;5035327;28;20044;-67
2023/02/14 09:31:16;;;;;;;54.10;24.45;;;3.70;99.90;;;;;;5050786;28;20040;-67
2023/02/14 09:36:31;;;;;;;55.92;23.17;;;3.90;99.90;;;;;;5051102;28;20044;-67
2023/02/14 09:38:59;;;;;;;49.63;22.55;;;4.00;99.90;;;;;;5050273;28;20430;-67
2023/02/14 09:41:29;;;;;;;50.10;23.17;;;4.10;99.90;;;;;;5048358;28;20118;-67
2023/02/14 09:44:07;;;;;;;48.67;22.75;;;4.20;99.90;;;;;;5050023;28;20132;-67
2023/02/14 09:46:47;;;;;;;54.10;23.50;;;4.20;99.90;;;;;;5042170;28;20392;-68
2023/02/14 09:49:18;;;;;;;48.72;22.33;;;4.30;99.90;;;;;;5050646;28;20143;-68
2023/02/14 09:51:50;;;;;;;50.53;22.55;;;4.40;99.90;;;;;;5067247;28;20043;-67
2023/02/14 09:54:23;;;;;;;45.60;22.85;;;4.40;99.90;;;;;;5051892;28;20127;-68
2023/02/14 09:57:08;;;;;;;46.90;22.80;;;4.50;99.90;;;;;;5051472;28;20124;-67
2023/02/14 09:59:39;;;;;;;49.33;22.10;;;4.60;99.90;;;;;;5047594;28;20044;-68
2023/02/14 10:02:43;;;;;;;42.63;20.23;;;4.60;99.90;;;;;;5049591;28;20044;-68
2023/02/14 10:05:16;;;;;;;42.20;20.13;;;4.70;99.90;;;;;;5039294;28;20049;-67
2023/02/14 10:08:02;;;;;;;46.60;20.70;;;4.70;99.90;;;;;;5048624;28;20526;-67
2023/02/14 10:10:37;;;;;;;41.53;20.48;;;4.80;99.90;;;;;;5046117;28;20368;-68
2023/02/14 10:13:41;;;;;;;40.15;19.42;;;4.90;99.90;;;;;;5048249;28;20130;-68
2023/02/14 10:16:31;;;;;;;43.08;20.02;;;5.00;99.90;;;;;;5050496;28;20041;-68
2023/02/14 10:19:20;;;;;;;42.42;19.55;;;5.00;99.90;;;;;;5043382;28;20052;-68
2023/02/14 10:22:19;;;;;;;38.78;19.60;;;5.10;99.90;;;;;;5035538;28;20047;-68
2023/02/14 10:25:06;;;;;;;35.90;18.20;;;5.30;99.90;;;;;;5051633;28;20114;-68
2023/02/14 10:27:44;;;;;;;38.00;18.55;;;5.20;99.90;;;;;;5050174;28;20455;-68
2023/02/14 10:30:19;;;;;;;36.92;17.65;;;5.30;99.90;;;;;;5044353;28;20042;-69
2023/02/14 10:32:48;;;;;;;37.45;18.13;;;5.40;99.90;;;;;;5030060;28;20391;-69
2023/02/14 10:35:24;;;;;;;37.85;19.23;;;5.40;99.90;;;;;;5031346;28;20127;-67
2023/02/14 10:38:04;;;;;;;35.35;17.83;;;5.50;99.90;;;;;;5044176;28;20171;-68
2023/02/14 10:40:46;;;;;;;32.60;16.80;;;5.30;99.90;;;;;;5048110;28;20045;-68
2023/02/14 10:43:37;;;;;;;36.13;17.45;;;5.50;99.90;;;;;;5036664;28;20049;-69
2023/02/14 10:46:21;;;;;;;34.13;17.80;;;5.50;99.90;;;;;;5045740;28;20570;-69
2023/02/14 10:48:57;;;;;;;35.13;17.90;;;5.40;99.90;;;;;;5045660;28;20484;-69
2023/02/14 10:51:45;;;;;;;33.80;17.70;;;5.50;99.90;;;;;;5048392;28;20045;-69
2023/02/14 10:54:30;;;;;;;33.33;16.88;;;5.50;99.90;;;;;;5049352;28;20060;-69
2023/02/14 10:57:02;;;;;;;34.72;17.40;;;5.50;99.90;;;;;;5028776;28;20124;-69
2023/02/14 10:59:43;;;;;;;33.15;17.90;;;5.50;99.90;;;;;;5043410;28;20375;-68
2023/02/14 11:02:14;;;;;;;32.55;16.35;;;5.50;99.90;;;;;;5042589;28;20075;-67
2023/02/14 11:04:45;;;;;;;34.15;17.77;;;5.40;99.90;;;;;;5049657;28;20041;-66
2023/02/14 11:07:14;;;;;;;33.47;16.88;;;5.40;99.90;;;;;;5043603;28;20045;-68
2023/02/14 11:09:42;;;;;;;35.92;17.20;;;5.40;99.90;;;;;;5041638;28;20491;-68
2023/02/14 11:12:09;;;;;;;29.90;15.75;;;5.60;99.90;;;;;;5038178;28;20385;-68
2023/02/14 11:14:38;;;;;;;31.25;16.00;;;5.70;99.90;;;;;;5049440;28;20052;-67
2023/02/14 11:17:26;;;;;;;30.73;16.73;;;5.90;99.90;;;;;;5049666;28;20471;-66
2023/02/14 11:20:06;;;;;;;31.63;15.65;;;5.90;99.90;;;;;;5047713;28;20471;-67
2023/02/14 11:22:34;;;;;;;32.03;15.75;;;5.90;99.90;;;;;;5047734;28;20515;-67
2023/02/14 11:25:12;;;;;;;31.40;16.70;;;5.80;99.90;;;;;;5050058;28;20065;-68
2023/02/14 11:27:48;;;;;;;30.90;16.38;;;5.80;99.90;;;;;;5043874;28;20525;-69
2023/02/14 11:30:30;;;;;;;32.30;17.17;;;5.80;99.90;;;;;;5047851;28;20066;-69
2023/02/14 11:32:57;;;;;;;31.27;16.40;;;5.80;99.90;;;;;;5045974;28;20272;-69
2023/02/14 11:35:32;;;;;;;34.53;16.95;;;5.80;99.90;;;;;;5044105;28;20052;-69
2023/02/14 11:38:02;;;;;;;32.38;17.48;;;6.00;99.90;;;;;;5054387;28;20563;-69
2023/02/14 11:40:37;;;;;;;32.65;16.88;;;6.10;99.90;;;;;;5047237;28;20045;-69
2023/02/14 11:43:11;;;;;;;29.75;16.20;;;6.00;99.90;;;;;;5036129;28;20518;-69
2023/02/14 11:45:43;;;;;;;31.30;16.83;;;6.20;99.90;;;;;;5047738;28;20098;-69
2023/02/14 11:48:23;;;;;;;31.25;16.95;;;6.20;99.90;;;;;;5041936;28;20523;-69
2023/02/14 11:51:08;;;;;;;30.45;16.20;;;6.10;99.90;;;;;;5033127;28;20055;-70
2023/02/14 11:53:38;;;;;;;;;;;6.10;99.90;;;;;;5023993;28;20118;-70
2023/02/14 11:56:06;;;;;;;30.63;16.25;;;6.10;99.90;;;;;;5050435;28;19920;-68
2023/02/14 11:58:38;;;;;;;33.38;17.80;;;5.80;99.90;;;;;;5048576;28;20033;-68
2023/02/14 12:01:06;;;;;;;35.70;17.38;;;5.80;99.90;;;;;;5032832;28;20034;-68
2023/02/14 12:03:43;;;;;;;32.42;16.38;;;6.00;99.90;;;;;;5045115;28;20408;-69
2023/02/14 12:06:12;;;;;;;29.83;15.40;;;6.10;99.90;;;;;;5048503;28;20410;-68
2023/02/14 12:08:40;;;;;;;28.83;15.57;;;6.10;99.90;;;;;;5048754;28;20072;-69
2023/02/14 12:11:22;;;;;;;32.13;16.65;;;6.20;99.90;;;;;;5029064;28;20049;-69
2023/02/14 12:13:54;;;;;;;36.08;18.08;;;6.30;99.90;;;;;;5039163;28;20041;-68
2023/02/14 12:16:37;;;;;;;28.20;15.07;;;6.40;99.90;;;;;;5048845;28;20547;-68
2023/02/14 12:19:14;;;;;;;29.05;16.15;;;6.40;99.90;;;;;;5041391;28;20053;-69
2023/02/14 12:22:00;;;;;;;34.22;15.82;;;6.40;99.90;;;;;;5038090;28;20048;-68
2023/02/14 12:24:27;;;;;;;28.75;15.27;;;6.80;99.90;;;;;;5043323;28;20376;-68
2023/02/14 12:27:09;;;;;;;31.27;16.10;;;6.80;99.90;;;;;;5028336;28;20480;-69
2023/02/14 12:29:39;;;;;;;;;;;7.00;99.90;;;;;;5042473;28;20202;-69
2023/02/14 12:32:19;;;;;;;27.80;15.50;;;7.10;99.90;;;;;;5046431;28;20314;-68
2023/02/14 12:34:48;;;;;;;30.27;16.65;;;7.30;99.90;;;;;;5027997;28;20435;-69
2023/02/14 12:37:27;;;;;;;31.45;15.45;;;7.20;99.90;;;;;;5028409;28;20100;-68
2023/02/14 12:40:15;;;;;;;27.30;15.43;;;7.20;99.90;;;;;;5042234;28;20244;-69
2023/02/14 12:43:36;;;;;;;30.75;15.45;;;7.20;99.90;;;;;;5040078;28;20424;-70
2023/02/14 12:46:11;;;;;;;30.80;16.30;;;7.20;99.90;;;;;;5016345;28;20559;-69
2023/02/14 12:49:15;;;;;;;28.83;15.32;;;7.20;99.90;;;;;;5010531;28;20053;-68
2023/02/14 12:52:10;;;;;;;25.65;14.18;;;7.30;99.90;;;;;;5019910;28;20053;-68
2023/02/14 12:54:43;;;;;;;27.25;15.27;;;7.10;99.90;;;;;;5001064;28;20591;-68
2023/02/14 12:57:41;;;;;;;26.48;14.88;;;7.40;99.90;;;;;;5027117;28;20095;-69
2023/02/14 13:00:34;;;;;;;26.63;14.57;;;7.50;99.90;;;;;;5020790;28;20493;-69
2023/02/14 13:03:39;;;;;;;29.15;15.55;;;7.10;99.90;;;;;;5006410;28;20050;-69
2023/02/14 13:06:28;;;;;;;23.77;13.95;;;7.00;99.90;;;;;;5006625;28;20104;-69
2023/02/14 13:09:07;;;;;;;22.88;12.98;;;7.20;99.90;;;;;;5026119;28;20055;-68
2023/02/14 13:12:10;;;;;;;25.40;14.07;;;7.30;99.90;;;;;;5017244;28;20082;-68
2023/02/14 13:14:46;;;;;;;28.15;14.80;;;7.40;99.90;;;;;;5018901;28;20116;-68
2023/02/14 13:17:39;;;;;;;22.23;13.15;;;7.10;99.90;;;;;;5016730;28;20176;-69
2023/02/14 13:20:25;;;;;;;24.73;14.27;;;7.40;99.90;;;;;;5043732;28;20476;-70
2023/02/14 13:22:56;;;;;;;24.92;13.85;;;7.50;99.90;;;;;;5055250;28;20452;-69
2023/02/14 13:25:30;;;;;;;24.50;13.15;;;7.70;99.90;;;;;;5065087;28;20061;-69